sensor_id;sensor_type;location;lat;lon;timestamp;P1;durP1;ratioP1;P2;durP2;ratioP2
11283;SDS011;5698;47.332;11.180;2023-03-01T00:00:20;26.37;;;21.77;;
11283;SDS011;5698;47.332;11.180;2023-03-01T00:02:47;26.60;;;20.47;;
11283;SDS011;5698;47.332;11.180;2023-03-01T00:05:14;29.57;;;22.13;;
11283;SDS011;5698;47.332;11.180;2023-03-01T00:07:41;25.00;;;19.63;;
11283;SDS011;5698;47.332;11.180;2023-03-01T00:10:08;25.60;;;19.77;;
11283;SDS011;5698;47.332;11.180;2023-03-01T00:12:38;28.57;;;21.60;;
11283;SDS011;5698;47.332;11.180;2023-03-01T00:15:05;28.00;;;21.23;;
11283;SDS011;5698;47.332;11.180;2023-03-01T00:17:33;26.80;;;21.10;;
11283;SDS011;5698;47.332;11.180;2023-03-01T00:20:00;27.07;;;19.43;;
11283;SDS011;5698;47.332;11.180;2023-03-01T00:22:27;25.83;;;19.27;;
11283;SDS011;5698;47.332;11.180;2023-03-01T00:24:54;26.60;;;20.53;;
11283;SDS011;5698;47.332;11.180;2023-03-01T00:27:21;24.97;;;19.97;;
11283;SDS011;5698;47.332;11.180;2023-03-01T00:29:49;27.03;;;21.27;;
11283;SDS011;5698;47.332;11.180;2023-03-01T00:32:16;24.27;;;18.07;;
11283;SDS011;5698;47.332;11.180;2023-03-01T00:34:43;29.67;;;21.83;;
11283;SDS011;5698;47.332;11.180;2023-03-01T00:37:19;25.93;;;19.90;;
11283;SDS011;5698;47.332;11.180;2023-03-01T00:39:46;24.07;;;18.87;;
11283;SDS011;5698;47.332;11.180;2023-03-01T00:42:13;29.70;;;20.90;;
11283;SDS011;5698;47.332;11.180;2023-03-01T00:44:40;27.00;;;21.00;;
11283;SDS011;5698;47.332;11.180;2023-03-01T00:47:09;25.13;;;18.40;;
11283;SDS011;5698;47.332;11.180;2023-03-01T00:49:36;25.53;;;19.70;;
11283;SDS011;5698;47.332;11.180;2023-03-01T00:52:03;23.97;;;18.67;;
11283;SDS011;5698;47.332;11.180;2023-03-01T00:54:30;19.53;;;15.73;;
11283;SDS011;5698;47.332;11.180;2023-03-01T00:56:57;19.43;;;15.43;;
11283;SDS011;5698;47.332;11.180;2023-03-01T00:59:24;17.60;;;13.60;;
11283;SDS011;5698;47.332;11.180;2023-03-01T01:01:51;16.17;;;13.13;;
11283;SDS011;5698;47.332;11.180;2023-03-01T01:04:19;16.80;;;12.50;;
11283;SDS011;5698;47.332;11.180;2023-03-01T01:06:47;14.47;;;12.60;;
11283;SDS011;5698;47.332;11.180;2023-03-01T01:09:15;13.07;;;11.23;;
11283;SDS011;5698;47.332;11.180;2023-03-01T01:11:44;15.07;;;12.17;;
11283;SDS011;5698;47.332;11.180;2023-03-01T01:14:11;15.57;;;11.83;;
11283;SDS011;5698;47.332;11.180;2023-03-01T01:16:38;15.03;;;13.27;;
11283;SDS011;5698;47.332;11.180;2023-03-01T01:19:06;14.33;;;12.83;;
11283;SDS011;5698;47.332;11.180;2023-03-01T01:21:34;15.77;;;13.93;;
11283;SDS011;5698;47.332;11.180;2023-03-01T01:24:02;16.13;;;13.07;;
11283;SDS011;5698;47.332;11.180;2023-03-01T01:26:30;16.40;;;13.50;;
11283;SDS011;5698;47.332;11.180;2023-03-01T01:28:59;15.83;;;13.60;;
11283;SDS011;5698;47.332;11.180;2023-03-01T01:31:27;14.57;;;12.23;;
11283;SDS011;5698;47.332;11.180;2023-03-01T01:33:54;15.57;;;13.60;;
11283;SDS011;5698;47.332;11.180;2023-03-01T01:36:22;15.83;;;12.97;;
11283;SDS011;5698;47.332;11.180;2023-03-01T01:38:51;14.50;;;12.13;;
11283;SDS011;5698;47.332;11.180;2023-03-01T01:41:18;13.37;;;11.43;;
11283;SDS011;5698;47.332;11.180;2023-03-01T01:43:47;14.17;;;12.13;;
11283;SDS011;5698;47.332;11.180;2023-03-01T01:46:35;13.57;;;12.07;;
11283;SDS011;5698;47.332;11.180;2023-03-01T01:49:04;13.17;;;11.77;;
11283;SDS011;5698;47.332;11.180;2023-03-01T01:51:35;13.40;;;11.97;;
11283;SDS011;5698;47.332;11.180;2023-03-01T01:54:09;12.90;;;11.57;;
11283;SDS011;5698;47.332;11.180;2023-03-01T01:56:39;15.63;;;11.37;;
11283;SDS011;5698;47.332;11.180;2023-03-01T01:59:10;14.87;;;11.70;;
11283;SDS011;5698;47.332;11.180;2023-03-01T02:01:38;13.93;;;10.97;;
11283;SDS011;5698;47.332;11.180;2023-03-01T02:04:05;15.03;;;12.27;;
11283;SDS011;5698;47.332;11.180;2023-03-01T02:06:33;15.03;;;12.10;;
11283;SDS011;5698;47.332;11.180;2023-03-01T02:09:04;16.57;;;12.73;;
11283;SDS011;5698;47.332;11.180;2023-03-01T02:11:38;15.83;;;12.53;;
11283;SDS011;5698;47.332;11.180;2023-03-01T02:14:06;14.77;;;12.27;;
11283;SDS011;5698;47.332;11.180;2023-03-01T02:16:33;15.53;;;13.20;;
11283;SDS011;5698;47.332;11.180;2023-03-01T02:19:01;14.40;;;12.30;;
11283;SDS011;5698;47.332;11.180;2023-03-01T02:21:34;15.10;;;12.67;;
11283;SDS011;5698;47.332;11.180;2023-03-01T02:24:14;15.27;;;12.17;;
11283;SDS011;5698;47.332;11.180;2023-03-01T02:26:59;13.47;;;11.40;;
11283;SDS011;5698;47.332;11.180;2023-03-01T02:29:28;14.77;;;12.37;;
11283;SDS011;5698;47.332;11.180;2023-03-01T02:31:56;15.23;;;12.53;;
11283;SDS011;5698;47.332;11.180;2023-03-01T02:34:26;16.13;;;11.60;;
11283;SDS011;5698;47.332;11.180;2023-03-01T02:36:57;15.77;;;12.93;;
11283;SDS011;5698;47.332;11.180;2023-03-01T02:39:39;17.27;;;13.57;;
11283;SDS011;5698;47.332;11.180;2023-03-01T02:42:09;14.07;;;11.73;;
11283;SDS011;5698;47.332;11.180;2023-03-01T02:44:39;15.87;;;13.23;;
11283;SDS011;5698;47.332;11.180;2023-03-01T02:47:06;15.53;;;12.40;;
11283;SDS011;5698;47.332;11.180;2023-03-01T02:49:33;15.47;;;12.53;;
11283;SDS011;5698;47.332;11.180;2023-03-01T02:52:08;16.43;;;13.60;;
11283;SDS011;5698;47.332;11.180;2023-03-01T02:54:52;15.57;;;11.90;;
11283;SDS011;5698;47.332;11.180;2023-03-01T02:57:24;14.17;;;11.67;;
11283;SDS011;5698;47.332;11.180;2023-03-01T02:59:53;14.70;;;11.63;;
11283;SDS011;5698;47.332;11.180;2023-03-01T03:02:23;14.70;;;11.77;;
11283;SDS011;5698;47.332;11.180;2023-03-01T03:05:01;16.87;;;12.43;;
11283;SDS011;5698;47.332;11.180;2023-03-01T03:07:31;15.53;;;12.53;;
11283;SDS011;5698;47.332;11.180;2023-03-01T03:10:00;13.37;;;11.47;;
11283;SDS011;5698;47.332;11.180;2023-03-01T03:12:28;15.77;;;13.67;;
11283;SDS011;5698;47.332;11.180;2023-03-01T03:14:55;16.77;;;12.93;;
11283;SDS011;5698;47.332;11.180;2023-03-01T03:17:22;16.77;;;12.47;;
11283;SDS011;5698;47.332;11.180;2023-03-01T03:19:49;15.90;;;12.53;;
11283;SDS011;5698;47.332;11.180;2023-03-01T03:22:17;15.43;;;12.70;;
11283;SDS011;5698;47.332;11.180;2023-03-01T03:24:44;17.80;;;11.73;;
11283;SDS011;5698;47.332;11.180;2023-03-01T03:27:12;15.70;;;13.13;;
11283;SDS011;5698;47.332;11.180;2023-03-01T03:29:41;14.90;;;11.37;;
11283;SDS011;5698;47.332;11.180;2023-03-01T03:32:08;16.47;;;13.10;;
11283;SDS011;5698;47.332;11.180;2023-03-01T03:34:35;15.27;;;12.83;;
11283;SDS011;5698;47.332;11.180;2023-03-01T03:37:02;15.23;;;11.87;;
11283;SDS011;5698;47.332;11.180;2023-03-01T03:39:49;15.80;;;12.27;;
11283;SDS011;5698;47.332;11.180;2023-03-01T03:42:21;15.13;;;12.37;;
11283;SDS011;5698;47.332;11.180;2023-03-01T03:44:48;15.63;;;12.30;;
11283;SDS011;5698;47.332;11.180;2023-03-01T03:47:15;16.77;;;13.00;;
11283;SDS011;5698;47.332;11.180;2023-03-01T03:49:42;15.83;;;12.90;;
11283;SDS011;5698;47.332;11.180;2023-03-01T03:52:08;17.07;;;14.03;;
11283;SDS011;5698;47.332;11.180;2023-03-01T03:54:38;16.50;;;12.73;;
11283;SDS011;5698;47.332;11.180;2023-03-01T03:57:05;16.77;;;12.00;;
11283;SDS011;5698;47.332;11.180;2023-03-01T03:59:34;18.17;;;14.73;;
11283;SDS011;5698;47.332;11.180;2023-03-01T04:02:01;20.43;;;15.67;;
11283;SDS011;5698;47.332;11.180;2023-03-01T04:04:28;21.33;;;15.77;;
11283;SDS011;5698;47.332;11.180;2023-03-01T04:06:55;19.10;;;14.57;;
11283;SDS011;5698;47.332;11.180;2023-03-01T04:09:22;13.23;;;11.83;;
11283;SDS011;5698;47.332;11.180;2023-03-01T04:11:49;18.83;;;14.37;;
11283;SDS011;5698;47.332;11.180;2023-03-01T04:14:15;16.73;;;12.37;;
11283;SDS011;5698;47.332;11.180;2023-03-01T04:16:44;20.40;;;15.07;;
11283;SDS011;5698;47.332;11.180;2023-03-01T04:19:11;19.13;;;15.70;;
11283;SDS011;5698;47.332;11.180;2023-03-01T04:21:40;15.73;;;12.53;;
11283;SDS011;5698;47.332;11.180;2023-03-01T04:24:07;14.47;;;12.00;;
11283;SDS011;5698;47.332;11.180;2023-03-01T04:26:34;15.10;;;13.03;;
11283;SDS011;5698;47.332;11.180;2023-03-01T04:29:01;14.10;;;11.70;;
11283;SDS011;5698;47.332;11.180;2023-03-01T04:31:28;16.17;;;12.60;;
11283;SDS011;5698;47.332;11.180;2023-03-01T04:33:56;14.70;;;13.07;;
11283;SDS011;5698;47.332;11.180;2023-03-01T04:36:24;19.97;;;13.67;;
11283;SDS011;5698;47.332;11.180;2023-03-01T04:38:52;16.20;;;13.23;;
11283;SDS011;5698;47.332;11.180;2023-03-01T04:41:20;14.17;;;12.23;;
11283;SDS011;5698;47.332;11.180;2023-03-01T04:43:48;14.67;;;12.07;;
11283;SDS011;5698;47.332;11.180;2023-03-01T04:46:16;15.23;;;12.67;;
11283;SDS011;5698;47.332;11.180;2023-03-01T04:48:45;19.73;;;12.77;;
11283;SDS011;5698;47.332;11.180;2023-03-01T04:51:14;15.53;;;13.20;;
11283;SDS011;5698;47.332;11.180;2023-03-01T04:53:43;14.00;;;11.97;;
11283;SDS011;5698;47.332;11.180;2023-03-01T04:56:11;15.47;;;12.73;;
11283;SDS011;5698;47.332;11.180;2023-03-01T04:58:38;15.43;;;13.23;;
11283;SDS011;5698;47.332;11.180;2023-03-01T05:01:08;19.47;;;14.03;;
11283;SDS011;5698;47.332;11.180;2023-03-01T05:03:40;15.47;;;12.53;;
11283;SDS011;5698;47.332;11.180;2023-03-01T05:06:08;16.63;;;13.67;;
11283;SDS011;5698;47.332;11.180;2023-03-01T05:08:37;17.17;;;14.47;;
11283;SDS011;5698;47.332;11.180;2023-03-01T05:11:04;15.33;;;13.03;;
11283;SDS011;5698;47.332;11.180;2023-03-01T05:13:34;16.80;;;13.70;;
11283;SDS011;5698;47.332;11.180;2023-03-01T05:16:02;18.80;;;14.23;;
11283;SDS011;5698;47.332;11.180;2023-03-01T05:18:30;17.27;;;13.57;;
11283;SDS011;5698;47.332;11.180;2023-03-01T05:21:01;16.07;;;13.37;;
11283;SDS011;5698;47.332;11.180;2023-03-01T05:23:31;19.23;;;14.80;;
11283;SDS011;5698;47.332;11.180;2023-03-01T05:26:00;15.50;;;12.80;;
11283;SDS011;5698;47.332;11.180;2023-03-01T05:28:29;17.27;;;13.63;;
11283;SDS011;5698;47.332;11.180;2023-03-01T05:30:57;19.17;;;14.87;;
11283;SDS011;5698;47.332;11.180;2023-03-01T05:33:24;17.40;;;13.47;;
11283;SDS011;5698;47.332;11.180;2023-03-01T05:35:52;17.53;;;13.13;;
11283;SDS011;5698;47.332;11.180;2023-03-01T05:38:20;19.23;;;13.70;;
11283;SDS011;5698;47.332;11.180;2023-03-01T05:40:48;16.87;;;13.40;;
11283;SDS011;5698;47.332;11.180;2023-03-01T05:43:16;17.47;;;13.67;;
11283;SDS011;5698;47.332;11.180;2023-03-01T05:45:44;16.20;;;13.47;;
11283;SDS011;5698;47.332;11.180;2023-03-01T05:48:11;15.87;;;13.40;;
11283;SDS011;5698;47.332;11.180;2023-03-01T05:50:39;17.17;;;14.20;;
11283;SDS011;5698;47.332;11.180;2023-03-01T05:53:09;16.17;;;13.60;;
11283;SDS011;5698;47.332;11.180;2023-03-01T05:55:38;18.00;;;12.63;;
11283;SDS011;5698;47.332;11.180;2023-03-01T05:58:07;16.27;;;12.07;;
11283;SDS011;5698;47.332;11.180;2023-03-01T06:00:37;15.97;;;12.50;;
11283;SDS011;5698;47.332;11.180;2023-03-01T06:03:04;16.27;;;11.87;;
11283;SDS011;5698;47.332;11.180;2023-03-01T06:05:31;19.63;;;13.03;;
11283;SDS011;5698;47.332;11.180;2023-03-01T06:07:58;17.03;;;14.57;;
11283;SDS011;5698;47.332;11.180;2023-03-01T06:10:26;14.20;;;12.67;;
11283;SDS011;5698;47.332;11.180;2023-03-01T06:12:53;16.03;;;13.50;;
11283;SDS011;5698;47.332;11.180;2023-03-01T06:15:21;16.43;;;13.00;;
11283;SDS011;5698;47.332;11.180;2023-03-01T06:17:50;13.90;;;11.60;;
11283;SDS011;5698;47.332;11.180;2023-03-01T06:20:18;16.00;;;12.93;;
11283;SDS011;5698;47.332;11.180;2023-03-01T06:22:46;16.20;;;13.40;;
11283;SDS011;5698;47.332;11.180;2023-03-01T06:25:15;18.17;;;13.80;;
11283;SDS011;5698;47.332;11.180;2023-03-01T06:27:43;19.70;;;13.20;;
11283;SDS011;5698;47.332;11.180;2023-03-01T06:30:11;19.13;;;14.43;;
11283;SDS011;5698;47.332;11.180;2023-03-01T06:32:40;17.83;;;14.97;;
11283;SDS011;5698;47.332;11.180;2023-03-01T06:35:10;17.10;;;13.17;;
11283;SDS011;5698;47.332;11.180;2023-03-01T06:37:38;14.77;;;12.30;;
11283;SDS011;5698;47.332;11.180;2023-03-01T06:40:06;16.67;;;13.47;;
11283;SDS011;5698;47.332;11.180;2023-03-01T06:42:36;15.40;;;12.43;;
11283;SDS011;5698;47.332;11.180;2023-03-01T06:45:04;17.00;;;13.80;;
11283;SDS011;5698;47.332;11.180;2023-03-01T06:47:32;14.60;;;11.50;;
11283;SDS011;5698;47.332;11.180;2023-03-01T06:50:00;15.70;;;13.00;;
11283;SDS011;5698;47.332;11.180;2023-03-01T06:52:29;15.90;;;12.67;;
11283;SDS011;5698;47.332;11.180;2023-03-01T06:54:56;15.27;;;12.43;;
11283;SDS011;5698;47.332;11.180;2023-03-01T06:57:23;16.37;;;12.10;;
11283;SDS011;5698;47.332;11.180;2023-03-01T06:59:49;14.60;;;12.60;;
11283;SDS011;5698;47.332;11.180;2023-03-01T07:02:16;15.57;;;12.53;;
11283;SDS011;5698;47.332;11.180;2023-03-01T07:04:43;15.30;;;11.37;;
11283;SDS011;5698;47.332;11.180;2023-03-01T07:07:10;15.17;;;11.93;;
11283;SDS011;5698;47.332;11.180;2023-03-01T07:09:39;15.10;;;12.43;;
11283;SDS011;5698;47.332;11.180;2023-03-01T07:12:06;14.60;;;11.47;;
11283;SDS011;5698;47.332;11.180;2023-03-01T07:14:33;15.20;;;11.93;;
11283;SDS011;5698;47.332;11.180;2023-03-01T07:17:00;14.90;;;11.67;;
11283;SDS011;5698;47.332;11.180;2023-03-01T07:19:27;15.93;;;11.97;;
11283;SDS011;5698;47.332;11.180;2023-03-01T07:21:54;14.80;;;12.00;;
11283;SDS011;5698;47.332;11.180;2023-03-01T07:24:21;16.20;;;12.40;;
11283;SDS011;5698;47.332;11.180;2023-03-01T07:26:50;13.20;;;11.33;;
11283;SDS011;5698;47.332;11.180;2023-03-01T07:29:18;14.43;;;11.63;;
11283;SDS011;5698;47.332;11.180;2023-03-01T07:31:45;15.77;;;11.77;;
11283;SDS011;5698;47.332;11.180;2023-03-01T07:34:12;15.30;;;12.37;;
11283;SDS011;5698;47.332;11.180;2023-03-01T07:36:39;16.23;;;12.77;;
11283;SDS011;5698;47.332;11.180;2023-03-01T07:39:08;15.53;;;12.27;;
11283;SDS011;5698;47.332;11.180;2023-03-01T07:41:35;15.60;;;12.87;;
11283;SDS011;5698;47.332;11.180;2023-03-01T07:44:04;13.27;;;11.03;;
11283;SDS011;5698;47.332;11.180;2023-03-01T07:46:31;14.53;;;12.00;;
11283;SDS011;5698;47.332;11.180;2023-03-01T07:48:58;16.27;;;11.77;;
11283;SDS011;5698;47.332;11.180;2023-03-01T07:51:25;15.67;;;11.23;;
11283;SDS011;5698;47.332;11.180;2023-03-01T07:53:52;15.30;;;11.60;;
11283;SDS011;5698;47.332;11.180;2023-03-01T07:56:19;14.67;;;11.80;;
11283;SDS011;5698;47.332;11.180;2023-03-01T07:58:47;15.97;;;11.60;;
11283;SDS011;5698;47.332;11.180;2023-03-01T08:01:16;14.57;;;11.60;;
11283;SDS011;5698;47.332;11.180;2023-03-01T08:03:44;15.47;;;11.60;;
11283;SDS011;5698;47.332;11.180;2023-03-01T08:06:13;14.27;;;12.07;;
11283;SDS011;5698;47.332;11.180;2023-03-01T08:08:41;13.83;;;11.77;;
11283;SDS011;5698;47.332;11.180;2023-03-01T08:11:09;14.60;;;11.27;;
11283;SDS011;5698;47.332;11.180;2023-03-01T08:13:37;13.23;;;11.20;;
11283;SDS011;5698;47.332;11.180;2023-03-01T08:16:06;13.33;;;11.23;;
11283;SDS011;5698;47.332;11.180;2023-03-01T08:18:35;12.67;;;10.43;;
11283;SDS011;5698;47.332;11.180;2023-03-01T08:21:03;17.77;;;11.47;;
11283;SDS011;5698;47.332;11.180;2023-03-01T08:23:30;13.23;;;11.17;;
11283;SDS011;5698;47.332;11.180;2023-03-01T08:26:04;13.37;;;11.47;;
11283;SDS011;5698;47.332;11.180;2023-03-01T08:28:32;14.83;;;12.30;;
11283;SDS011;5698;47.332;11.180;2023-03-01T08:30:59;14.60;;;11.53;;
11283;SDS011;5698;47.332;11.180;2023-03-01T08:33:26;15.33;;;11.93;;
11283;SDS011;5698;47.332;11.180;2023-03-01T08:36:02;15.27;;;12.80;;
11283;SDS011;5698;47.332;11.180;2023-03-01T08:38:32;14.20;;;11.63;;
11283;SDS011;5698;47.332;11.180;2023-03-01T08:40:59;16.03;;;13.20;;
11283;SDS011;5698;47.332;11.180;2023-03-01T08:43:27;13.27;;;11.83;;
11283;SDS011;5698;47.332;11.180;2023-03-01T08:45:54;15.30;;;11.93;;
11283;SDS011;5698;47.332;11.180;2023-03-01T08:48:23;19.20;;;12.20;;
11283;SDS011;5698;47.332;11.180;2023-03-01T08:50:50;15.10;;;12.47;;
11283;SDS011;5698;47.332;11.180;2023-03-01T08:53:19;12.40;;;10.87;;
11283;SDS011;5698;47.332;11.180;2023-03-01T08:55:46;15.40;;;12.57;;
11283;SDS011;5698;47.332;11.180;2023-03-01T08:58:13;13.57;;;11.93;;
11283;SDS011;5698;47.332;11.180;2023-03-01T09:00:40;15.77;;;12.33;;
11283;SDS011;5698;47.332;11.180;2023-03-01T09:03:07;13.90;;;11.93;;
11283;SDS011;5698;47.332;11.180;2023-03-01T09:05:34;14.93;;;11.90;;
11283;SDS011;5698;47.332;11.180;2023-03-01T09:08:01;14.60;;;12.00;;
11283;SDS011;5698;47.332;11.180;2023-03-01T09:10:30;15.13;;;12.30;;
11283;SDS011;5698;47.332;11.180;2023-03-01T09:12:57;12.80;;;11.20;;
11283;SDS011;5698;47.332;11.180;2023-03-01T09:15:24;13.93;;;11.33;;
11283;SDS011;5698;47.332;11.180;2023-03-01T09:17:51;13.27;;;10.70;;
11283;SDS011;5698;47.332;11.180;2023-03-01T09:20:18;13.13;;;11.53;;
11283;SDS011;5698;47.332;11.180;2023-03-01T09:22:45;16.87;;;12.03;;
11283;SDS011;5698;47.332;11.180;2023-03-01T09:25:12;14.90;;;12.90;;
11283;SDS011;5698;47.332;11.180;2023-03-01T09:27:40;14.40;;;12.10;;
11283;SDS011;5698;47.332;11.180;2023-03-01T09:30:07;14.00;;;12.40;;
11283;SDS011;5698;47.332;11.180;2023-03-01T09:32:36;16.03;;;13.20;;
11283;SDS011;5698;47.332;11.180;2023-03-01T09:35:07;15.03;;;12.50;;
11283;SDS011;5698;47.332;11.180;2023-03-01T09:37:35;14.10;;;11.57;;
11283;SDS011;5698;47.332;11.180;2023-03-01T09:40:03;14.13;;;11.63;;
11283;SDS011;5698;47.332;11.180;2023-03-01T09:42:32;15.43;;;13.13;;
11283;SDS011;5698;47.332;11.180;2023-03-01T09:45:02;12.53;;;10.97;;
11283;SDS011;5698;47.332;11.180;2023-03-01T09:47:33;14.40;;;12.13;;
11283;SDS011;5698;47.332;11.180;2023-03-01T09:50:02;13.70;;;11.67;;
11283;SDS011;5698;47.332;11.180;2023-03-01T09:52:36;12.80;;;11.23;;
11283;SDS011;5698;47.332;11.180;2023-03-01T09:55:09;12.10;;;10.87;;
11283;SDS011;5698;47.332;11.180;2023-03-01T09:57:41;12.57;;;10.47;;
11283;SDS011;5698;47.332;11.180;2023-03-01T10:00:20;13.07;;;11.07;;
11283;SDS011;5698;47.332;11.180;2023-03-01T10:02:55;13.47;;;11.00;;
11283;SDS011;5698;47.332;11.180;2023-03-01T10:05:29;13.43;;;11.63;;
11283;SDS011;5698;47.332;11.180;2023-03-01T10:08:21;13.57;;;11.47;;
11283;SDS011;5698;47.332;11.180;2023-03-01T10:11:01;11.57;;;10.37;;
11283;SDS011;5698;47.332;11.180;2023-03-01T10:13:31;13.83;;;11.20;;
11283;SDS011;5698;47.332;11.180;2023-03-01T10:16:05;14.20;;;11.10;;
11283;SDS011;5698;47.332;11.180;2023-03-01T10:18:38;12.90;;;11.57;;
11283;SDS011;5698;47.332;11.180;2023-03-01T10:21:09;13.53;;;10.73;;
11283;SDS011;5698;47.332;11.180;2023-03-01T10:23:42;12.27;;;10.93;;
11283;SDS011;5698;47.332;11.180;2023-03-01T10:26:12;11.57;;;10.37;;
11283;SDS011;5698;47.332;11.180;2023-03-01T10:28:51;12.70;;;11.00;;
11283;SDS011;5698;47.332;11.180;2023-03-01T10:31:31;11.43;;;10.20;;
11283;SDS011;5698;47.332;11.180;2023-03-01T10:34:07;12.83;;;10.03;;
11283;SDS011;5698;47.332;11.180;2023-03-01T10:36:36;11.20;;;10.00;;
11283;SDS011;5698;47.332;11.180;2023-03-01T10:39:12;11.37;;;10.13;;
11283;SDS011;5698;47.332;11.180;2023-03-01T10:41:59;11.03;;;9.77;;
11283;SDS011;5698;47.332;11.180;2023-03-01T10:44:35;10.53;;;9.37;;
11283;SDS011;5698;47.332;11.180;2023-03-01T10:47:12;11.53;;;9.77;;
11283;SDS011;5698;47.332;11.180;2023-03-01T10:49:51;11.90;;;10.60;;
11283;SDS011;5698;47.332;11.180;2023-03-01T10:52:27;11.40;;;9.67;;
11283;SDS011;5698;47.332;11.180;2023-03-01T10:54:57;13.47;;;10.20;;
11283;SDS011;5698;47.332;11.180;2023-03-01T10:57:30;11.50;;;10.37;;
11283;SDS011;5698;47.332;11.180;2023-03-01T11:00:10;11.90;;;10.57;;
11283;SDS011;5698;47.332;11.180;2023-03-01T11:02:49;10.57;;;8.90;;
11283;SDS011;5698;47.332;11.180;2023-03-01T11:05:21;11.57;;;10.37;;
11283;SDS011;5698;47.332;11.180;2023-03-01T11:07:50;11.23;;;10.03;;
11283;SDS011;5698;47.332;11.180;2023-03-01T11:10:20;11.53;;;9.97;;
11283;SDS011;5698;47.332;11.180;2023-03-01T11:12:50;11.20;;;10.00;;
11283;SDS011;5698;47.332;11.180;2023-03-01T11:15:25;10.27;;;9.27;;
11283;SDS011;5698;47.332;11.180;2023-03-01T11:17:55;11.67;;;10.47;;
11283;SDS011;5698;47.332;11.180;2023-03-01T11:20:27;11.33;;;10.17;;
11283;SDS011;5698;47.332;11.180;2023-03-01T11:22:58;11.50;;;10.33;;
11283;SDS011;5698;47.332;11.180;2023-03-01T11:25:30;11.70;;;10.60;;
11283;SDS011;5698;47.332;11.180;2023-03-01T11:28:02;10.37;;;9.37;;
11283;SDS011;5698;47.332;11.180;2023-03-01T11:30:32;10.67;;;9.67;;
11283;SDS011;5698;47.332;11.180;2023-03-01T11:33:08;11.33;;;9.40;;
11283;SDS011;5698;47.332;11.180;2023-03-01T11:35:44;11.93;;;10.60;;
11283;SDS011;5698;47.332;11.180;2023-03-01T11:38:18;11.63;;;10.53;;
11283;SDS011;5698;47.332;11.180;2023-03-01T11:40:49;11.50;;;9.60;;
11283;SDS011;5698;47.332;11.180;2023-03-01T11:43:26;12.30;;;9.97;;
11283;SDS011;5698;47.332;11.180;2023-03-01T11:46:23;11.93;;;9.83;;
11283;SDS011;5698;47.332;11.180;2023-03-01T11:49:20;11.83;;;10.07;;
11283;SDS011;5698;47.332;11.180;2023-03-01T11:52:03;11.00;;;9.70;;
11283;SDS011;5698;47.332;11.180;2023-03-01T11:54:42;10.13;;;9.13;;
11283;SDS011;5698;47.332;11.180;2023-03-01T11:57:20;10.63;;;9.53;;
11283;SDS011;5698;47.332;11.180;2023-03-01T12:00:03;11.63;;;9.30;;
11283;SDS011;5698;47.332;11.180;2023-03-01T12:02:55;9.67;;;8.77;;
11283;SDS011;5698;47.332;11.180;2023-03-01T12:08:37;10.33;;;9.00;;
11283;SDS011;5698;47.332;11.180;2023-03-01T12:11:15;9.17;;;8.30;;
11283;SDS011;5698;47.332;11.180;2023-03-01T12:13:56;12.23;;;9.40;;
11283;SDS011;5698;47.332;11.180;2023-03-01T12:16:47;9.90;;;8.90;;
11283;SDS011;5698;47.332;11.180;2023-03-01T12:19:41;10.07;;;9.10;;
11283;SDS011;5698;47.332;11.180;2023-03-01T12:22:28;9.63;;;8.63;;
11283;SDS011;5698;47.332;11.180;2023-03-01T12:27:59;9.57;;;8.67;;
11283;SDS011;5698;47.332;11.180;2023-03-01T12:30:47;8.13;;;7.43;;
11283;SDS011;5698;47.332;11.180;2023-03-01T12:33:26;9.30;;;8.40;;
11283;SDS011;5698;47.332;11.180;2023-03-01T12:39:02;8.77;;;7.87;;
11283;SDS011;5698;47.332;11.180;2023-03-01T12:41:46;9.10;;;8.13;;
11283;SDS011;5698;47.332;11.180;2023-03-01T12:44:23;8.83;;;8.03;;
11283;SDS011;5698;47.332;11.180;2023-03-01T12:47:07;8.80;;;7.93;;
11283;SDS011;5698;47.332;11.180;2023-03-01T12:49:47;8.53;;;7.73;;
11283;SDS011;5698;47.332;11.180;2023-03-01T12:52:20;9.23;;;8.43;;
11283;SDS011;5698;47.332;11.180;2023-03-01T12:54:51;9.07;;;7.97;;
11283;SDS011;5698;47.332;11.180;2023-03-01T12:57:25;9.63;;;8.73;;
11283;SDS011;5698;47.332;11.180;2023-03-01T13:00:03;10.63;;;8.33;;
11283;SDS011;5698;47.332;11.180;2023-03-01T13:02:48;10.57;;;9.07;;
11283;SDS011;5698;47.332;11.180;2023-03-01T13:05:24;10.33;;;9.33;;
11283;SDS011;5698;47.332;11.180;2023-03-01T13:08:00;10.43;;;9.40;;
11283;SDS011;5698;47.332;11.180;2023-03-01T13:10:39;10.50;;;9.40;;
11283;SDS011;5698;47.332;11.180;2023-03-01T13:13:14;10.93;;;9.90;;
11283;SDS011;5698;47.332;11.180;2023-03-01T13:15:46;10.87;;;9.87;;
11283;SDS011;5698;47.332;11.180;2023-03-01T13:20:59;10.33;;;9.33;;
11283;SDS011;5698;47.332;11.180;2023-03-01T13:23:29;10.27;;;9.27;;
11283;SDS011;5698;47.332;11.180;2023-03-01T13:26:13;10.40;;;9.27;;
11283;SDS011;5698;47.332;11.180;2023-03-01T13:28:46;11.03;;;9.87;;
11283;SDS011;5698;47.332;11.180;2023-03-01T13:34:39;11.33;;;9.43;;
11283;SDS011;5698;47.332;11.180;2023-03-01T13:37:24;12.13;;;10.93;;
11283;SDS011;5698;47.332;11.180;2023-03-01T13:40:00;13.67;;;10.47;;
11283;SDS011;5698;47.332;11.180;2023-03-01T13:42:36;12.60;;;10.43;;
11283;SDS011;5698;47.332;11.180;2023-03-01T13:45:19;10.33;;;9.43;;
11283;SDS011;5698;47.332;11.180;2023-03-01T13:47:52;10.83;;;9.77;;
11283;SDS011;5698;47.332;11.180;2023-03-01T13:50:24;10.83;;;9.73;;
11283;SDS011;5698;47.332;11.180;2023-03-01T13:52:54;11.47;;;9.90;;
11283;SDS011;5698;47.332;11.180;2023-03-01T13:55:25;10.50;;;9.50;;
11283;SDS011;5698;47.332;11.180;2023-03-01T13:58:00;11.40;;;10.20;;
11283;SDS011;5698;47.332;11.180;2023-03-01T14:00:31;10.77;;;9.63;;
11283;SDS011;5698;47.332;11.180;2023-03-01T14:03:04;9.87;;;8.87;;
11283;SDS011;5698;47.332;11.180;2023-03-01T14:05:39;9.63;;;8.70;;
11283;SDS011;5698;47.332;11.180;2023-03-01T14:08:17;9.60;;;8.47;;
11283;SDS011;5698;47.332;11.180;2023-03-01T14:10:50;11.30;;;9.00;;
11283;SDS011;5698;47.332;11.180;2023-03-01T14:13:29;9.50;;;8.70;;
11283;SDS011;5698;47.332;11.180;2023-03-01T14:19:02;10.77;;;9.77;;
11283;SDS011;5698;47.332;11.180;2023-03-01T14:21:41;12.27;;;10.97;;
11283;SDS011;5698;47.332;11.180;2023-03-01T14:24:14;11.33;;;9.93;;
11283;SDS011;5698;47.332;11.180;2023-03-01T14:26:43;9.97;;;8.97;;
11283;SDS011;5698;47.332;11.180;2023-03-01T14:29:24;12.13;;;10.37;;
11283;SDS011;5698;47.332;11.180;2023-03-01T14:32:08;10.60;;;9.50;;
11283;SDS011;5698;47.332;11.180;2023-03-01T14:34:44;11.17;;;10.03;;
11283;SDS011;5698;47.332;11.180;2023-03-01T14:37:17;11.57;;;9.67;;
11283;SDS011;5698;47.332;11.180;2023-03-01T14:39:46;11.13;;;9.67;;
11283;SDS011;5698;47.332;11.180;2023-03-01T14:42:13;11.93;;;9.70;;
11283;SDS011;5698;47.332;11.180;2023-03-01T14:44:43;10.73;;;9.70;;
11283;SDS011;5698;47.332;11.180;2023-03-01T14:47:14;11.37;;;10.13;;
11283;SDS011;5698;47.332;11.180;2023-03-01T14:49:43;9.77;;;8.83;;
11283;SDS011;5698;47.332;11.180;2023-03-01T14:52:17;9.07;;;8.17;;
11283;SDS011;5698;47.332;11.180;2023-03-01T14:54:47;10.20;;;6.63;;
11283;SDS011;5698;47.332;11.180;2023-03-01T14:57:17;6.67;;;6.07;;
11283;SDS011;5698;47.332;11.180;2023-03-01T14:59:48;9.00;;;7.43;;
11283;SDS011;5698;47.332;11.180;2023-03-01T15:02:18;7.73;;;6.93;;
11283;SDS011;5698;47.332;11.180;2023-03-01T15:04:49;7.63;;;6.53;;